Decoded Metar for LTFG ( in ) (IATA:) | Meteo·Mobile Aviation Weather
aviador You're here:

LTFG Decoded Metar

in
Report Time2019-03-22 13:50:00
UTC Time2019-03-22 14:44:33
Flight Rules vfr VFR
Wind240° at 07 kt
W.Decomp.*RWY 26: 6.6 kt HW 2.4 kt LCW
W.Rank240° ranks 2
Current wind is above 240° avg. (6.6)
Visibility9999 m
Phenomena:N/A
Clouds:N/A
Expected CloudBase > 4,800 ft AGL from Temp-Dew spread
CeilingNone
Temp22°C
Dew Point10°C (47% RH)
AAT19.6°C
QNH1015 hPa
Raw Report
METAR LTFG 221350Z 24007KT CAVOK 22/10 Q1015=

Extra information for LTFG:More info

Social comments